createdAt,value
2017-10-03T00:02:09.905Z,57.47
2017-10-03T00:04:36.571Z,57.37
2017-10-03T00:07:03.240Z,65.63
2017-10-03T00:09:29.915Z,60.43
2017-10-03T00:11:56.695Z,54.13
2017-10-03T00:14:23.345Z,66.97
2017-10-03T00:16:49.993Z,66.17
2017-10-03T00:19:17.047Z,54.90
2017-10-03T00:21:43.696Z,60.10
2017-10-03T00:24:10.353Z,56.30
2017-10-03T00:26:37.024Z,74.67
2017-10-03T00:29:03.702Z,62.10
2017-10-03T00:31:30.347Z,68.70
2017-10-03T00:33:57.017Z,72.03
2017-10-03T00:36:23.676Z,60.40
2017-10-03T00:38:50.351Z,66.67
2017-10-03T00:41:17.031Z,63.83
2017-10-03T00:43:43.680Z,57.90
2017-10-03T00:46:10.515Z,60.93
2017-10-03T00:48:37.175Z,55.00
2017-10-03T00:51:03.831Z,55.77
2017-10-03T00:53:30.519Z,62.53
2017-10-03T00:55:57.168Z,59.17
2017-10-03T00:58:23.820Z,53.37
2017-10-03T01:00:50.664Z,50.33
2017-10-03T01:03:17.411Z,58.80
2017-10-03T01:05:44.068Z,77.57
2017-10-03T01:08:10.772Z,51.83
2017-10-03T01:10:37.421Z,53.73
2017-10-03T01:13:04.074Z,45.50
2017-10-03T01:15:30.751Z,51.97
2017-10-03T01:17:57.421Z,49.20
2017-10-03T01:20:24.072Z,47.80
2017-10-03T01:22:50.945Z,66.90
2017-10-03T01:25:17.592Z,51.23
2017-10-03T01:27:44.271Z,50.23
2017-10-03T01:30:10.923Z,52.50
2017-10-03T01:32:37.568Z,48.53
2017-10-03T01:35:04.240Z,53.30
2017-10-03T01:37:31.187Z,47.87
2017-10-03T01:39:57.849Z,46.13
2017-10-03T01:42:24.499Z,44.23
2017-10-03T01:44:51.175Z,45.13
2017-10-03T01:47:17.829Z,40.67
2017-10-03T01:49:44.713Z,46.17
2017-10-03T01:52:11.358Z,49.77
2017-10-03T01:54:38.010Z,56.13
2017-10-03T01:57:04.685Z,42.63
2017-10-03T01:59:31.336Z,41.07
2017-10-03T02:01:58.017Z,51.63
2017-10-03T02:04:24.699Z,48.37
2017-10-03T02:06:51.348Z,44.57
2017-10-03T02:09:18.020Z,39.27
2017-10-03T02:11:44.668Z,38.40
2017-10-03T02:14:11.337Z,37.30
2017-10-03T02:16:37.989Z,35.80
2017-10-03T02:19:04.662Z,37.17
2017-10-03T02:21:31.318Z,37.67
2017-10-03T02:23:57.984Z,34.93
2017-10-03T02:26:24.638Z,37.60
2017-10-03T02:28:51.293Z,35.53
2017-10-03T02:31:18.118Z,33.07
2017-10-03T02:33:44.777Z,39.30
2017-10-03T02:36:11.423Z,33.77
2017-10-03T02:38:38.108Z,39.90
2017-10-03T02:41:04.782Z,45.87
2017-10-03T02:43:31.441Z,39.63
2017-10-03T02:45:58.117Z,36.73
2017-10-03T02:48:24.771Z,40.77
2017-10-03T02:50:51.455Z,38.03
2017-10-03T02:53:18.274Z,33.47
2017-10-03T02:55:44.936Z,34.70
2017-10-03T02:58:11.596Z,32.90
2017-10-03T03:00:38.270Z,37.50
2017-10-03T03:03:04.952Z,38.30
2017-10-03T03:05:31.637Z,51.10
2017-10-03T03:07:58.283Z,38.80
2017-10-03T03:10:25.171Z,37.80
2017-10-03T03:12:51.829Z,36.00
2017-10-03T03:15:18.483Z,39.33
2017-10-03T03:17:45.159Z,37.90
2017-10-03T03:20:11.820Z,41.57
2017-10-03T03:22:38.488Z,36.73
2017-10-03T03:25:05.140Z,31.07
2017-10-03T03:27:31.808Z,37.17
2017-10-03T03:29:58.492Z,35.77
2017-10-03T03:32:25.177Z,44.63
2017-10-03T03:34:51.852Z,41.03
2017-10-03T03:37:18.499Z,32.97
2017-10-03T03:39:45.484Z,36.30
2017-10-03T03:42:12.142Z,34.43
2017-10-03T03:44:38.793Z,31.03
2017-10-03T03:47:05.469Z,30.67
2017-10-03T03:49:32.112Z,38.63
2017-10-03T03:51:58.788Z,39.83
2017-10-03T03:54:25.576Z,28.03
2017-10-03T03:56:52.228Z,32.10
2017-10-03T03:59:18.885Z,31.17
2017-10-03T04:01:45.767Z,30.37
2017-10-03T04:04:12.425Z,37.60
2017-10-03T04:06:39.100Z,33.67
2017-10-03T04:09:05.767Z,31.47
2017-10-03T04:11:32.600Z,31.70
2017-10-03T04:13:59.253Z,27.43
2017-10-03T04:16:25.923Z,27.43
2017-10-03T04:18:52.857Z,28.77
2017-10-03T04:21:19.515Z,25.70
2017-10-03T04:23:46.169Z,23.80
2017-10-03T04:26:12.852Z,36.60
2017-10-03T04:28:39.496Z,29.07
2017-10-03T04:31:06.177Z,29.47
2017-10-03T04:33:32.872Z,23.20
2017-10-03T04:35:59.691Z,29.00
2017-10-03T04:38:26.349Z,23.90
2017-10-03T04:40:52.999Z,28.60
2017-10-03T04:43:19.696Z,27.37
2017-10-03T04:45:46.349Z,30.33
2017-10-03T04:48:13.029Z,26.50
2017-10-03T04:50:39.684Z,36.10
2017-10-03T04:53:06.550Z,30.13
2017-10-03T04:55:33.204Z,30.17
2017-10-03T04:57:59.858Z,29.30
2017-10-03T05:00:26.524Z,33.47
2017-10-03T05:02:53.177Z,48.50
2017-10-03T05:05:19.861Z,29.63
2017-10-03T05:07:46.508Z,33.60
2017-10-03T05:10:13.327Z,30.90
2017-10-03T05:12:39.983Z,48.33
2017-10-03T05:15:06.634Z,37.73
2017-10-03T05:17:33.317Z,42.60
2017-10-03T05:20:00.017Z,42.03
2017-10-03T05:22:26.705Z,33.30
2017-10-03T05:24:53.378Z,37.30
2017-10-03T05:27:20.252Z,37.53
2017-10-03T05:29:46.928Z,81.33
2017-10-03T05:32:13.585Z,157.97
2017-10-03T05:34:40.266Z,37.53
2017-10-03T05:37:06.907Z,32.67
2017-10-03T05:39:33.552Z,36.50
2017-10-03T05:42:00.231Z,41.23
2017-10-03T05:44:26.900Z,35.57
2017-10-03T05:46:53.549Z,31.90
2017-10-03T05:49:20.224Z,40.90
2017-10-03T05:51:46.867Z,52.03
2017-10-03T05:54:13.544Z,98.50
2017-10-03T05:56:40.229Z,331.73
2017-10-03T05:59:06.920Z,50.60
2017-10-03T06:01:33.565Z,52.23
2017-10-03T06:04:00.249Z,56.90
2017-10-03T06:06:26.904Z,56.10
2017-10-03T06:08:53.591Z,78.83
2017-10-03T06:11:20.244Z,72.20
2017-10-03T06:13:46.921Z,83.77
2017-10-03T06:16:13.591Z,66.00
2017-10-03T06:18:40.243Z,71.80
2017-10-03T06:21:06.920Z,60.57
2017-10-03T06:23:33.597Z,66.10
2017-10-03T06:26:00.275Z,59.13
2017-10-03T06:28:26.962Z,58.10
2017-10-03T06:30:53.612Z,47.57
2017-10-03T06:33:20.291Z,47.23
2017-10-03T06:35:46.947Z,41.90
2017-10-03T06:38:13.606Z,51.57
2017-10-03T06:40:40.314Z,43.53
2017-10-03T06:43:06.965Z,48.33
2017-10-03T06:45:33.611Z,37.10
2017-10-03T06:48:00.279Z,43.03
2017-10-03T06:50:26.962Z,35.40
2017-10-03T06:52:53.628Z,38.73
2017-10-03T06:55:20.282Z,40.47
2017-10-03T06:57:46.935Z,37.23
2017-10-03T07:00:13.612Z,48.00
2017-10-03T07:02:40.270Z,40.63
2017-10-03T07:05:06.925Z,34.60
2017-10-03T07:07:33.792Z,32.37
2017-10-03T07:10:00.432Z,36.20
2017-10-03T07:12:27.080Z,42.23
2017-10-03T07:14:53.770Z,40.53
2017-10-03T07:17:20.436Z,36.97
2017-10-03T07:19:47.112Z,30.63
2017-10-03T07:22:13.771Z,41.13
2017-10-03T07:24:40.563Z,39.13
2017-10-03T07:27:07.225Z,34.43
2017-10-03T07:29:33.890Z,30.00
2017-10-03T07:32:00.561Z,33.60
2017-10-03T07:34:27.268Z,46.10
2017-10-03T07:36:54.033Z,29.90
2017-10-03T07:39:20.704Z,31.43
2017-10-03T07:41:47.360Z,36.13
2017-10-03T07:44:14.031Z,22.00
2017-10-03T07:46:40.695Z,29.13
2017-10-03T07:49:07.370Z,29.13
2017-10-03T07:51:34.179Z,21.13
2017-10-03T07:54:00.824Z,24.87
2017-10-03T07:56:27.472Z,23.80
2017-10-03T07:58:54.152Z,22.47
2017-10-03T08:01:20.832Z,21.30
2017-10-03T08:03:47.492Z,28.33
2017-10-03T08:06:14.141Z,22.10
2017-10-03T08:08:40.822Z,19.97
2017-10-03T08:11:07.499Z,20.83
2017-10-03T08:13:34.257Z,20.70
2017-10-03T08:16:01.008Z,33.90
2017-10-03T08:18:27.685Z,33.03
2017-10-03T08:20:54.355Z,30.63
2017-10-03T08:23:21.009Z,28.87
2017-10-03T08:25:47.684Z,45.23
2017-10-03T08:28:14.361Z,34.10
2017-10-03T08:30:41.027Z,39.27
2017-10-03T08:33:07.844Z,33.63
2017-10-03T08:35:34.499Z,49.13
2017-10-03T08:38:01.148Z,38.70
2017-10-03T08:40:27.820Z,36.73
2017-10-03T08:42:54.502Z,33.23
2017-10-03T08:45:21.174Z,29.60
2017-10-03T08:47:47.830Z,28.90
2017-10-03T08:50:14.509Z,39.30
2017-10-03T08:52:41.167Z,29.63
2017-10-03T08:55:07.827Z,21.33
2017-10-03T08:57:34.711Z,20.00
2017-10-03T09:00:01.356Z,21.77
2017-10-03T09:02:28.036Z,25.50
2017-10-03T09:04:54.679Z,24.97
2017-10-03T09:07:21.349Z,31.10
2017-10-03T09:09:48.000Z,25.47
2017-10-03T09:12:14.972Z,33.53
2017-10-03T09:14:41.639Z,27.67
2017-10-03T09:17:08.288Z,34.20
2017-10-03T09:19:34.964Z,52.67
2017-10-03T09:22:01.632Z,48.90
2017-10-03T09:24:28.275Z,72.00
2017-10-03T09:26:54.917Z,87.50
2017-10-03T09:29:21.587Z,67.17
2017-10-03T09:31:48.355Z,91.63
2017-10-03T09:34:15.012Z,71.57
2017-10-03T09:36:41.684Z,79.40
2017-10-03T09:39:08.385Z,72.83
2017-10-03T09:41:35.048Z,65.53
2017-10-03T09:44:01.703Z,43.57
2017-10-03T09:46:28.378Z,52.10
2017-10-03T09:48:55.185Z,23.20
2017-10-03T09:51:21.832Z,18.83
2017-10-03T09:53:48.485Z,11.77
2017-10-03T09:56:15.165Z,3.60
2017-10-03T09:58:41.817Z,10.27
2017-10-03T10:01:08.475Z,6.53
2017-10-03T10:03:35.110Z,8.07
2017-10-03T10:06:01.756Z,3.53
2017-10-03T10:08:28.420Z,1.33
2017-10-03T10:10:55.063Z,1.67
2017-10-03T10:13:21.875Z,0.87
2017-10-03T10:15:48.532Z,0.80
2017-10-03T10:18:15.487Z,1.00
2017-10-03T10:20:42.135Z,0.70
2017-10-03T10:23:08.776Z,0.90
2017-10-03T10:25:35.435Z,1.03
2017-10-03T10:28:02.088Z,0.87
2017-10-03T10:30:28.760Z,1.60
2017-10-03T10:32:55.402Z,1.20
2017-10-03T10:35:22.069Z,2.20
2017-10-03T10:37:48.728Z,1.53
2017-10-03T10:40:15.374Z,2.87
2017-10-03T10:42:42.146Z,0.80
2017-10-03T10:45:08.788Z,1.07
2017-10-03T10:47:35.429Z,1.73
2017-10-03T10:50:02.104Z,0.60
2017-10-03T10:52:28.765Z,0.93
2017-10-03T10:54:55.412Z,0.73
2017-10-03T10:57:22.088Z,3.13
2017-10-03T10:59:48.735Z,0.70
2017-10-03T11:02:15.403Z,1.47
2017-10-03T11:04:42.097Z,1.90
2017-10-03T11:07:08.764Z,0.90
2017-10-03T11:09:35.417Z,2.27
2017-10-03T11:12:02.087Z,0.97
2017-10-03T11:14:28.756Z,1.30
2017-10-03T11:16:55.431Z,1.43
2017-10-03T11:19:22.091Z,1.00
2017-10-03T11:21:48.766Z,1.57
2017-10-03T11:24:21.184Z,0.90
2017-10-03T11:26:47.828Z,1.00
2017-10-03T11:29:14.624Z,1.20
2017-10-03T11:31:41.265Z,1.90
2017-10-03T11:34:07.902Z,1.40
2017-10-03T11:36:34.592Z,3.83
2017-10-03T11:39:01.231Z,1.63
2017-10-03T11:41:27.887Z,2.30
2017-10-03T11:43:54.981Z,1.03
2017-10-03T11:46:21.623Z,5.63
2017-10-03T11:49:00.023Z,0.87
2017-10-03T11:51:26.691Z,1.43
2017-10-03T11:53:53.344Z,4.67
2017-10-03T11:56:20.016Z,0.87
2017-10-03T11:58:46.652Z,1.20
2017-10-03T12:01:13.323Z,0.77
2017-10-03T12:03:39.989Z,1.30
2017-10-03T12:06:06.627Z,0.93
2017-10-03T12:08:33.284Z,1.10
2017-10-03T12:10:59.927Z,1.10
2017-10-03T12:13:26.597Z,0.60
2017-10-03T12:15:53.263Z,1.00
2017-10-03T12:18:19.904Z,0.70
2017-10-03T12:20:46.548Z,1.63
2017-10-03T12:23:13.217Z,0.57
2017-10-03T12:25:39.913Z,1.10
2017-10-03T12:28:08.054Z,1.73
2017-10-03T12:30:34.845Z,0.80
2017-10-03T12:33:01.493Z,0.77
2017-10-03T12:35:28.347Z,0.60
2017-10-03T12:37:54.992Z,1.73
2017-10-03T12:40:21.627Z,1.63
2017-10-03T12:42:48.307Z,1.63
2017-10-03T12:45:14.950Z,1.27
2017-10-03T12:47:41.604Z,0.53
2017-10-03T12:50:08.267Z,1.03
2017-10-03T12:52:34.928Z,1.37
2017-10-03T12:55:01.572Z,1.17
2017-10-03T12:57:28.229Z,1.80
2017-10-03T12:59:55.155Z,3.60
2017-10-03T13:02:21.818Z,1.00
2017-10-03T13:04:48.459Z,0.80
2017-10-03T13:07:15.123Z,3.27
2017-10-03T13:09:41.760Z,0.80
2017-10-03T13:12:08.412Z,1.23
2017-10-03T13:14:35.188Z,2.27
2017-10-03T13:17:01.834Z,8.10
2017-10-03T13:19:28.480Z,1.47
2017-10-03T13:21:55.161Z,0.80
2017-10-03T13:24:21.807Z,1.17
2017-10-03T13:26:48.634Z,1.30
2017-10-03T13:29:15.294Z,6.00
2017-10-03T13:31:41.938Z,2.20
2017-10-03T13:34:08.600Z,1.37
2017-10-03T13:36:35.242Z,1.40
2017-10-03T13:39:01.891Z,1.40
2017-10-03T13:41:28.557Z,1.00
2017-10-03T13:43:55.202Z,1.37
2017-10-03T13:46:21.868Z,0.77
2017-10-03T13:48:48.708Z,0.97
2017-10-03T13:51:15.383Z,0.80
2017-10-03T13:53:42.033Z,0.80
2017-10-03T13:56:08.712Z,0.83
2017-10-03T13:58:35.359Z,1.20
2017-10-03T14:01:02.039Z,1.07
2017-10-03T14:03:28.690Z,1.37
2017-10-03T14:05:55.352Z,3.83
2017-10-03T14:08:22.000Z,1.07
2017-10-03T14:10:48.781Z,1.57
2017-10-03T14:13:15.444Z,4.97
2017-10-03T14:15:42.265Z,1.33
2017-10-03T14:18:08.910Z,5.93
2017-10-03T14:20:35.550Z,5.27
2017-10-03T14:23:02.485Z,15.10
2017-10-03T14:25:29.138Z,2.07
2017-10-03T14:27:55.785Z,1.10
2017-10-03T14:30:22.458Z,1.57
2017-10-03T14:32:49.150Z,1.30
2017-10-03T14:35:15.814Z,4.00
2017-10-03T14:37:42.481Z,1.47
2017-10-03T14:40:09.128Z,1.47
2017-10-03T14:42:35.772Z,2.50
2017-10-03T14:45:03.363Z,4.57
2017-10-03T14:47:30.018Z,1.20
2017-10-03T14:49:56.673Z,1.50
2017-10-03T14:52:23.331Z,3.30
2017-10-03T14:54:49.972Z,1.47
2017-10-03T14:57:16.628Z,1.40
2017-10-03T14:59:43.312Z,4.03
2017-10-03T15:02:09.959Z,1.30
2017-10-03T15:04:36.596Z,2.20
2017-10-03T15:07:03.256Z,1.40
2017-10-03T15:09:29.932Z,4.20
2017-10-03T15:11:56.601Z,3.27
2017-10-03T15:14:24.005Z,3.13
2017-10-03T15:16:50.678Z,1.60
2017-10-03T15:19:17.347Z,3.33
2017-10-03T15:21:43.996Z,1.53
2017-10-03T15:24:10.684Z,2.77
2017-10-03T15:26:37.348Z,4.23
2017-10-03T15:29:04.009Z,2.27
2017-10-03T15:31:30.648Z,1.40
2017-10-03T15:33:57.638Z,1.60
2017-10-03T15:36:24.340Z,1.57
2017-10-03T15:38:50.988Z,2.97
2017-10-03T15:41:17.656Z,2.83
2017-10-03T15:43:44.416Z,1.87
2017-10-03T15:46:11.095Z,4.13
2017-10-03T15:48:37.759Z,1.90
2017-10-03T15:51:04.407Z,4.30
2017-10-03T15:53:31.080Z,2.50
2017-10-03T15:55:57.919Z,2.43
2017-10-03T15:58:24.664Z,7.83
2017-10-03T16:00:51.344Z,2.90
2017-10-03T16:03:18.025Z,3.10
2017-10-03T16:05:44.681Z,5.20
2017-10-03T16:08:11.364Z,11.73
2017-10-03T16:10:38.018Z,4.63
2017-10-03T16:13:04.655Z,7.63
2017-10-03T16:15:31.324Z,5.20
2017-10-03T16:17:57.987Z,6.73
2017-10-03T16:20:24.635Z,3.97
2017-10-03T16:22:51.460Z,9.03
2017-10-03T16:25:18.099Z,5.50
2017-10-03T16:27:44.801Z,5.30
2017-10-03T16:30:11.486Z,12.77
2017-10-03T16:32:38.165Z,3.70
2017-10-03T16:35:05.083Z,3.63
2017-10-03T16:37:31.743Z,17.50
2017-10-03T16:39:58.378Z,4.13
2017-10-03T16:42:25.047Z,3.53
2017-10-03T16:44:51.692Z,5.03
2017-10-03T16:47:18.373Z,6.77
2017-10-03T16:49:45.008Z,3.93
2017-10-03T16:52:11.692Z,3.60
2017-10-03T16:54:38.357Z,3.00
2017-10-03T16:57:05.020Z,3.60
2017-10-03T16:59:31.704Z,5.13
2017-10-03T17:01:58.342Z,4.10
2017-10-03T17:04:25.388Z,4.30
2017-10-03T17:06:52.092Z,3.50
2017-10-03T17:09:18.979Z,6.27
2017-10-03T17:11:45.640Z,4.00
2017-10-03T17:14:12.295Z,7.13
2017-10-03T17:16:38.974Z,8.80
2017-10-03T17:19:05.747Z,4.50
2017-10-03T17:21:32.562Z,4.70
2017-10-03T17:23:59.322Z,3.57
2017-10-03T17:26:26.437Z,6.40
2017-10-03T17:28:53.309Z,5.90
2017-10-03T17:31:19.984Z,3.50
2017-10-03T17:33:46.645Z,3.80
2017-10-03T17:36:13.284Z,3.67
2017-10-03T17:38:39.951Z,3.30
2017-10-03T17:41:06.597Z,3.60
2017-10-03T17:43:33.382Z,10.40
2017-10-03T17:46:00.026Z,3.40
2017-10-03T17:48:26.668Z,9.80
2017-10-03T17:50:53.345Z,5.37
2017-10-03T17:53:21.597Z,3.50
2017-10-03T17:55:48.340Z,3.53
2017-10-03T17:58:14.980Z,4.07
2017-10-03T18:00:41.920Z,5.73
2017-10-03T18:03:08.616Z,8.70
2017-10-03T18:05:35.309Z,4.50
2017-10-03T18:08:02.150Z,6.10
2017-10-03T18:10:28.798Z,5.30
2017-10-03T18:12:55.435Z,4.97
2017-10-03T18:15:22.100Z,4.73
2017-10-03T18:17:48.751Z,4.90
2017-10-03T18:20:15.757Z,5.07
2017-10-03T18:22:42.398Z,10.80
2017-10-03T18:25:09.052Z,4.80
2017-10-03T18:27:35.715Z,4.93
2017-10-03T18:30:02.376Z,5.63
2017-10-03T18:32:29.063Z,9.67
2017-10-03T18:34:55.809Z,9.20
2017-10-03T18:37:22.459Z,14.80
2017-10-03T18:39:49.153Z,8.23
2017-10-03T18:42:15.809Z,6.70
2017-10-03T18:44:42.467Z,6.33
2017-10-03T18:47:09.133Z,10.30
2017-10-03T18:49:35.813Z,6.77
2017-10-03T18:52:02.464Z,9.37
2017-10-03T18:54:29.137Z,11.20
2017-10-03T18:56:55.805Z,6.63
2017-10-03T18:59:22.454Z,14.73
2017-10-03T19:01:49.110Z,11.00
2017-10-03T19:04:15.783Z,13.10
2017-10-03T19:06:42.504Z,11.23
2017-10-03T19:09:09.669Z,14.60
2017-10-03T19:11:36.413Z,11.90
2017-10-03T19:14:03.057Z,19.27
2017-10-03T19:16:29.724Z,9.83
2017-10-03T19:18:57.704Z,10.40
2017-10-03T19:21:25.068Z,8.83
2017-10-03T19:23:52.565Z,8.50
2017-10-03T19:26:19.269Z,10.00
2017-10-03T19:28:46.513Z,9.90
2017-10-03T19:31:13.186Z,16.13
2017-10-03T19:33:40.433Z,10.67
2017-10-03T19:36:07.580Z,12.93
2017-10-03T19:38:34.409Z,18.17
2017-10-03T19:41:01.418Z,10.67
2017-10-03T19:43:28.188Z,15.03
2017-10-03T19:45:54.848Z,10.17
2017-10-03T19:48:22.242Z,9.50
2017-10-03T19:50:48.927Z,10.27
2017-10-03T19:53:15.696Z,10.43
2017-10-03T19:55:43.094Z,13.60
2017-10-03T19:58:09.928Z,17.27
2017-10-03T20:00:37.244Z,16.00
2017-10-03T20:03:03.916Z,11.60
2017-10-03T20:05:31.892Z,12.13
2017-10-03T20:07:58.642Z,21.33
2017-10-03T20:10:25.550Z,15.70
2017-10-03T20:12:52.493Z,14.83
2017-10-03T20:15:19.146Z,16.70
2017-10-03T20:17:45.938Z,16.57
2017-10-03T20:20:13.036Z,15.67
2017-10-03T20:22:39.720Z,18.30
2017-10-03T20:25:06.372Z,14.83
2017-10-03T20:27:33.072Z,16.03
2017-10-03T20:29:59.747Z,16.63
2017-10-03T20:32:26.403Z,16.17
2017-10-03T20:34:53.096Z,17.37
2017-10-03T20:37:19.753Z,15.67
2017-10-03T20:39:46.445Z,22.53
2017-10-03T20:42:13.112Z,25.37
2017-10-03T20:44:39.952Z,13.17
2017-10-03T20:47:06.607Z,29.83
2017-10-03T20:49:33.255Z,13.80
2017-10-03T20:52:00.175Z,11.90
2017-10-03T20:54:26.834Z,11.53
2017-10-03T20:56:53.484Z,11.50
2017-10-03T20:59:20.162Z,13.50
2017-10-03T21:01:46.831Z,12.40
2017-10-03T21:04:13.489Z,17.50
2017-10-03T21:06:40.335Z,11.23
2017-10-03T21:09:06.995Z,20.20
2017-10-03T21:11:33.655Z,12.70
2017-10-03T21:14:00.576Z,13.27
2017-10-03T21:16:27.220Z,16.80
2017-10-03T21:18:53.884Z,16.50
2017-10-03T21:21:20.564Z,22.33
2017-10-03T21:23:47.241Z,21.00
2017-10-03T21:26:13.932Z,15.53
2017-10-03T21:28:40.599Z,20.07
2017-10-03T21:31:07.456Z,17.80
2017-10-03T21:33:34.133Z,16.33
2017-10-03T21:36:00.795Z,12.87
2017-10-03T21:38:27.786Z,13.30
2017-10-03T21:40:54.450Z,12.00
2017-10-03T21:43:21.102Z,10.80
2017-10-03T21:45:47.777Z,14.37
2017-10-03T21:48:14.453Z,16.83
2017-10-03T21:50:41.119Z,14.23
2017-10-03T21:53:07.785Z,15.50
2017-10-03T21:55:34.461Z,15.53
2017-10-03T21:58:01.133Z,11.80
2017-10-03T22:00:28.184Z,18.30
2017-10-03T22:02:54.846Z,15.53
2017-10-03T22:05:21.529Z,14.47
2017-10-03T22:07:48.220Z,9.87
2017-10-03T22:10:14.912Z,14.20
2017-10-03T22:12:41.631Z,15.10
2017-10-03T22:15:08.661Z,14.70
2017-10-03T22:17:35.313Z,17.17
2017-10-03T22:20:01.970Z,15.90
2017-10-03T22:22:28.660Z,13.67
2017-10-03T22:24:55.354Z,14.93
2017-10-03T22:27:22.012Z,13.30
2017-10-03T22:29:48.665Z,29.07
2017-10-03T22:32:15.623Z,13.20
2017-10-03T22:34:42.280Z,13.97
2017-10-03T22:37:08.924Z,15.70
2017-10-03T22:39:35.595Z,13.90
2017-10-03T22:42:02.249Z,18.40
2017-10-03T22:44:28.936Z,17.27
2017-10-03T22:46:55.611Z,14.67
2017-10-03T22:49:28.235Z,21.53
2017-10-03T22:52:00.685Z,20.97
2017-10-03T22:54:27.331Z,17.33
2017-10-03T22:56:54.013Z,19.60
2017-10-03T22:59:20.663Z,15.70
2017-10-03T23:01:47.353Z,19.43
2017-10-03T23:04:14.004Z,29.33
2017-10-03T23:06:40.652Z,16.07
2017-10-03T23:09:07.518Z,17.53
2017-10-03T23:11:34.169Z,13.97
2017-10-03T23:14:00.820Z,18.53
2017-10-03T23:16:27.496Z,16.93
2017-10-03T23:18:54.146Z,15.50
2017-10-03T23:21:20.816Z,18.10
2017-10-03T23:23:47.455Z,19.50
2017-10-03T23:26:14.133Z,17.77
2017-10-03T23:28:40.783Z,17.47
2017-10-03T23:31:07.460Z,23.20
2017-10-03T23:33:34.453Z,17.73
2017-10-03T23:36:01.113Z,15.33
2017-10-03T23:38:27.756Z,13.30
2017-10-03T23:40:54.666Z,15.80
2017-10-03T23:43:21.325Z,34.60
2017-10-03T23:45:47.999Z,15.77
2017-10-03T23:48:14.671Z,17.30
2017-10-03T23:50:41.326Z,21.37
2017-10-03T23:53:08.005Z,21.13
2017-10-03T23:55:34.664Z,26.60
2017-10-03T23:58:01.312Z,22.90
